Time;durP1;ratioP1;P1;durP2;ratioP2;P2;SDS_P1;SDS_P2;PMS_P1;PMS_P2;Temp;Humidity;BMP_temperature;BMP_pressure;BME280_temperature;BME280_humidity;BME280_pressure;Samples;Min_cycle;Max_cycle;Signal;HPM_P1;HPM_P2
2022/04/08 00:02:24;;;;;;;18.63;17.83;;;10.60;33.50;;;;;;6217258;23;20159;-80
2022/04/08 00:04:49;;;;;;;18.10;17.03;;;10.50;34.00;;;;;;6216824;23;20162;-81
2022/04/08 00:07:15;;;;;;;18.43;17.63;;;10.50;33.70;;;;;;6216987;23;20190;-81
2022/04/08 00:09:40;;;;;;;19.00;18.10;;;10.40;34.40;;;;;;6217166;23;20225;-81
2022/04/08 00:12:07;;;;;;;18.90;18.10;;;10.40;34.10;;;;;;6217215;23;20155;-82
2022/04/08 00:14:33;;;;;;;18.47;17.57;;;10.40;32.90;;;;;;6216814;23;20156;-81
2022/04/08 00:16:59;;;;;;;18.07;17.07;;;10.40;33.00;;;;;;6217019;23;20410;-81
2022/04/08 00:19:24;;;;;;;18.07;17.47;;;10.40;34.00;;;;;;6217253;23;20459;-81
2022/04/08 00:21:50;;;;;;;18.00;17.10;;;10.40;32.70;;;;;;6216564;23;20552;-82
2022/04/08 00:24:17;;;;;;;18.50;17.83;;;10.40;32.50;;;;;;6216578;23;20170;-81
2022/04/08 00:26:45;;;;;;;17.87;17.17;;;10.30;34.10;;;;;;6216477;23;20161;-82
2022/04/08 00:29:12;;;;;;;18.40;17.50;;;10.30;33.50;;;;;;6216814;23;20386;-81
2022/04/08 00:31:38;;;;;;;17.97;17.37;;;10.30;32.70;;;;;;6216145;23;20417;-81
2022/04/08 00:34:04;;;;;;;19.60;18.60;;;10.30;32.80;;;;;;6216557;23;20382;-81
2022/04/08 00:36:30;;;;;;;18.70;17.90;;;10.40;32.00;;;;;;6216247;23;20143;-80
2022/04/08 00:38:55;;;;;;;18.50;17.80;;;10.30;32.20;;;;;;6216626;23;20413;-81
2022/04/08 00:41:21;;;;;;;17.87;17.17;;;10.40;31.90;;;;;;6216491;23;20159;-81
2022/04/08 00:43:47;;;;;;;17.93;17.23;;;10.30;32.20;;;;;;6216754;23;20788;-81
2022/04/08 00:46:12;;;;;;;20.13;18.50;;;10.30;33.50;;;;;;6216363;23;20556;-81
2022/04/08 00:48:38;;;;;;;17.70;17.00;;;10.30;33.40;;;;;;6216542;23;20175;-81
2022/04/08 00:51:06;;;;;;;17.67;16.97;;;10.30;33.90;;;;;;6216788;23;20179;-81
2022/04/08 00:53:32;;;;;;;19.20;18.50;;;10.30;33.10;;;;;;6243371;23;20148;-81
2022/04/08 00:55:59;;;;;;;18.63;17.80;;;10.30;33.00;;;;;;6216398;23;20386;-81
2022/04/08 00:58:26;;;;;;;18.50;17.70;;;10.40;32.10;;;;;;6216071;23;20389;-80
2022/04/08 01:00:52;;;;;;;17.07;16.47;;;10.40;32.50;;;;;;6243498;23;20432;-80
2022/04/08 01:03:17;;;;;;;18.63;17.67;;;10.30;33.50;;;;;;6216671;23;20421;-81
2022/04/08 01:05:43;;;;;;;17.97;17.27;;;10.30;33.40;;;;;;6216513;23;20390;-80
2022/04/08 01:08:11;;;;;;;17.77;17.17;;;10.20;33.70;;;;;;6216403;23;20277;-81
2022/04/08 01:10:38;;;;;;;18.30;17.50;;;10.20;34.90;;;;;;6216030;23;20198;-80
2022/04/08 01:13:04;;;;;;;18.13;17.30;;;10.20;34.10;;;;;;6216494;23;20413;-81
2022/04/08 01:15:29;;;;;;;18.50;17.70;;;10.20;34.00;;;;;;6215494;23;20710;-80
2022/04/08 01:17:55;;;;;;;18.07;17.30;;;10.30;33.90;;;;;;6216550;23;20238;-81
2022/04/08 01:20:21;;;;;;;17.87;16.90;;;10.20;33.70;;;;;;6216851;23;20661;-80
2022/04/08 01:22:46;;;;;;;17.80;17.10;;;10.20;33.50;;;;;;6217236;23;20186;-80
2022/04/08 01:25:13;;;;;;;17.27;16.70;;;10.20;33.30;;;;;;6217322;23;20206;-80
2022/04/08 01:27:40;;;;;;;18.00;17.40;;;10.20;33.60;;;;;;6216932;23;20169;-81
2022/04/08 01:30:08;;;;;;;18.40;17.50;;;10.10;33.30;;;;;;6216428;23;20448;-80
2022/04/08 01:32:34;;;;;;;17.33;16.50;;;10.10;34.20;;;;;;6216545;23;20763;-81
2022/04/08 01:35:00;;;;;;;18.60;17.60;;;10.20;31.70;;;;;;6216067;23;20420;-81
2022/04/08 01:37:26;;;;;;;17.70;17.00;;;10.20;32.20;;;;;;6215707;23;20507;-81
2022/04/08 01:39:51;;;;;;;16.93;16.33;;;10.10;33.40;;;;;;6216413;23;20162;-81
2022/04/08 01:42:22;;;;;;;17.77;17.00;;;10.20;32.40;;;;;;6216098;23;20160;-81
2022/04/08 01:44:48;;;;;;;17.53;16.80;;;10.10;33.00;;;;;;6216123;23;20148;-81
2022/04/08 01:47:14;;;;;;;17.77;17.20;;;10.10;33.10;;;;;;6215628;23;20386;-81
2022/04/08 01:49:39;;;;;;;18.30;17.47;;;10.10;33.90;;;;;;6215738;23;20426;-81
2022/04/08 01:52:06;;;;;;;17.20;16.50;;;10.10;33.30;;;;;;6215494;23;20183;-81
2022/04/08 01:54:31;;;;;;;18.00;17.40;;;10.10;33.50;;;;;;6215839;23;20171;-81
2022/04/08 01:56:57;;;;;;;16.60;16.07;;;10.00;33.90;;;;;;6216032;23;20391;-80
2022/04/08 01:59:23;;;;;;;18.40;17.60;;;10.00;34.80;;;;;;6215944;23;20168;-81
2022/04/08 02:01:48;;;;;;;17.67;16.97;;;10.00;34.50;;;;;;6242846;23;20646;-80
2022/04/08 02:04:14;;;;;;;18.03;17.43;;;9.90;36.20;;;;;;6216139;23;20955;-80
2022/04/08 02:06:42;;;;;;;18.30;17.70;;;9.90;36.60;;;;;;6215665;23;20155;-80
2022/04/08 02:09:09;;;;;;;18.00;17.40;;;9.90;36.40;;;;;;6216037;23;20177;-80
2022/04/08 02:11:36;;;;;;;19.23;18.20;;;9.90;36.00;;;;;;6215886;23;20382;-81
2022/04/08 02:14:05;;;;;;;18.60;17.70;;;9.90;36.00;;;;;;6215646;23;20464;-80
2022/04/08 02:16:31;;;;;;;17.87;17.17;;;9.90;35.90;;;;;;6215897;23;20711;-80
2022/04/08 02:18:57;;;;;;;17.93;16.93;;;10.00;34.90;;;;;;6215716;23;20382;-80
2022/04/08 02:21:23;;;;;;;18.00;17.40;;;9.90;34.50;;;;;;6215224;23;20167;-80
2022/04/08 02:23:50;;;;;;;18.43;17.73;;;9.90;34.30;;;;;;6215930;23;20393;-80
2022/04/08 02:26:16;;;;;;;19.10;17.97;;;9.90;34.30;;;;;;6215775;23;20400;-80
2022/04/08 02:28:43;;;;;;;18.27;17.47;;;9.80;34.70;;;;;;6217724;23;20452;-80
2022/04/08 02:31:09;;;;;;;19.13;18.20;;;9.80;34.40;;;;;;6217457;23;20441;-80
2022/04/08 02:33:34;;;;;;;18.90;18.20;;;9.70;35.20;;;;;;6217078;23;20389;-80
2022/04/08 02:36:00;;;;;;;18.80;18.03;;;9.70;35.70;;;;;;6217404;23;20393;-80
2022/04/08 02:38:26;;;;;;;18.00;17.40;;;9.70;35.90;;;;;;6217516;23;20490;-80
2022/04/08 02:40:52;;;;;;;19.50;18.70;;;9.70;35.50;;;;;;6217174;23;20465;-80
2022/04/08 02:43:18;;;;;;;18.30;17.70;;;9.70;36.00;;;;;;6216828;23;20398;-79
2022/04/08 02:45:44;;;;;;;19.27;18.47;;;9.60;37.20;;;;;;6243770;23;20147;-80
2022/04/08 02:48:09;;;;;;;19.90;19.10;;;9.60;36.60;;;;;;6217185;23;20389;-81
2022/04/08 02:50:35;;;;;;;19.73;18.93;;;9.70;36.80;;;;;;6216897;23;20254;-80
2022/04/08 02:53:01;;;;;;;18.77;17.83;;;9.70;36.00;;;;;;6216717;23;20160;-81
2022/04/08 02:55:26;;;;;;;19.00;18.37;;;9.70;36.60;;;;;;6216949;23;20230;-80
2022/04/08 02:57:52;;;;;;;18.67;18.07;;;9.80;36.60;;;;;;6216971;23;20160;-80
2022/04/08 03:00:20;;;;;;;19.63;18.73;;;9.70;37.40;;;;;;6217586;23;20167;-81
2022/04/08 03:02:47;;;;;;;19.03;18.43;;;9.70;37.10;;;;;;6216895;23;20198;-81
2022/04/08 03:05:14;;;;;;;21.27;19.70;;;9.70;36.60;;;;;;6217040;23;20465;-80
2022/04/08 03:07:40;;;;;;;20.50;19.67;;;9.60;37.20;;;;;;6216683;23;20386;-80
2022/04/08 03:10:07;;;;;;;21.42;20.42;;;9.50;37.90;;;;;;6215761;23;20717;-80
2022/04/08 03:12:33;;;;;;;20.77;19.97;;;9.50;39.20;;;;;;6217469;23;20163;-80
2022/04/08 03:15:00;;;;;;;19.27;18.67;;;9.60;39.20;;;;;;6217624;23;20396;-80
2022/04/08 03:17:26;;;;;;;20.13;19.43;;;9.50;38.40;;;;;;6243901;23;20413;-80
2022/04/08 03:19:52;;;;;;;21.30;19.80;;;9.50;39.40;;;;;;6216979;23;20405;-80
2022/04/08 03:22:20;;;;;;;19.47;18.77;;;9.50;38.00;;;;;;6217623;23;20858;-80
2022/04/08 03:24:52;;;;;;;20.57;19.77;;;9.50;39.30;;;;;;6217155;23;20390;-80
2022/04/08 03:27:18;;;;;;;21.07;19.60;;;9.50;38.30;;;;;;6217331;23;20390;-79
2022/04/08 03:29:44;;;;;;;20.10;19.10;;;9.50;38.30;;;;;;6217414;23;20418;-80
2022/04/08 03:32:11;;;;;;;20.73;19.83;;;9.60;37.40;;;;;;6217945;23;20394;-80
2022/04/08 03:34:37;;;;;;;21.33;20.37;;;9.70;36.80;;;;;;6217523;23;20759;-81
2022/04/08 03:37:03;;;;;;;21.83;20.90;;;9.60;36.60;;;;;;6217762;23;20380;-81
2022/04/08 03:39:29;;;;;;;21.23;20.43;;;9.50;37.10;;;;;;6217417;23;20524;-81
2022/04/08 03:41:55;;;;;;;19.23;18.63;;;9.50;36.10;;;;;;6218240;23;20451;-80
2022/04/08 03:44:20;;;;;;;21.10;20.20;;;9.40;35.50;;;;;;6217693;23;20159;-81
2022/04/08 03:46:46;;;;;;;21.80;21.00;;;9.40;36.70;;;;;;6218845;23;20194;-81
2022/04/08 03:49:14;;;;;;;21.10;20.40;;;9.40;34.80;;;;;;6218199;23;20160;-81
2022/04/08 03:51:43;;;;;;;21.23;20.53;;;9.40;36.00;;;;;;6218473;23;20484;-81
2022/04/08 03:54:09;;;;;;;21.30;20.57;;;9.30;35.60;;;;;;6217791;23;20402;-80
2022/04/08 03:56:35;;;;;;;21.33;20.53;;;9.40;37.30;;;;;;6218397;23;20425;-81
2022/04/08 03:59:00;;;;;;;21.43;20.43;;;9.30;36.00;;;;;;6218371;23;20379;-81
2022/04/08 04:01:26;;;;;;;20.53;19.83;;;9.30;35.00;;;;;;6218617;23;20398;-81
2022/04/08 04:03:52;;;;;;;20.80;20.00;;;9.40;34.60;;;;;;6218423;23;20159;-83
2022/04/08 04:06:17;;;;;;;20.70;20.00;;;9.40;34.80;;;;;;6218879;23;20597;-83
2022/04/08 04:08:44;;;;;;;20.97;19.97;;;9.30;35.20;;;;;;6218315;23;20238;-82
2022/04/08 04:11:14;;;;;;;20.97;19.97;;;9.30;35.10;;;;;;6218293;23;20175;-79
2022/04/08 04:13:41;;;;;;;21.50;20.43;;;9.30;34.40;;;;;;6218139;23;20370;-81
2022/04/08 04:16:07;;;;;;;21.03;19.77;;;9.40;35.10;;;;;;6218453;23;20389;-81
2022/04/08 04:18:32;;;;;;;20.00;19.30;;;9.40;34.70;;;;;;6218884;23;20379;-80
2022/04/08 04:20:58;;;;;;;18.30;17.60;;;9.40;34.30;;;;;;6218937;23;20397;-80
2022/04/08 04:23:23;;;;;;;19.30;18.70;;;9.40;33.00;;;;;;6218371;23;20221;-79
2022/04/08 04:25:49;;;;;;;20.27;19.30;;;9.30;33.40;;;;;;6218538;23;20162;-81
2022/04/08 04:28:15;;;;;;;19.93;19.23;;;9.20;34.50;;;;;;6218955;23;20470;-81
2022/04/08 04:30:41;;;;;;;20.20;19.50;;;9.20;33.80;;;;;;6218295;23;20635;-80
2022/04/08 04:33:07;;;;;;;20.90;19.83;;;9.20;34.60;;;;;;6218587;23;20417;-81
2022/04/08 04:35:37;;;;;;;20.00;19.20;;;9.20;36.00;;;;;;6218291;23;20155;-84
2022/04/08 04:38:03;;;;;;;19.87;18.97;;;9.30;36.10;;;;;;6218912;23;20670;-86
2022/04/08 04:40:29;;;;;;;20.50;19.80;;;9.30;35.60;;;;;;6218360;23;20451;-81
2022/04/08 04:42:55;;;;;;;21.70;20.30;;;9.30;37.10;;;;;;6245602;23;20151;-81
2022/04/08 04:45:22;;;;;;;20.00;19.30;;;9.10;34.90;;;;;;6218310;23;20213;-81
2022/04/08 04:47:47;;;;;;;20.63;19.93;;;9.20;35.90;;;;;;6218575;23;20401;-80
2022/04/08 04:50:13;;;;;;;20.40;19.47;;;9.20;37.60;;;;;;6218407;23;20914;-81
2022/04/08 04:52:39;;;;;;;20.07;19.37;;;9.10;36.40;;;;;;6218283;23;20155;-80
2022/04/08 04:55:05;;;;;;;21.17;19.73;;;9.20;36.20;;;;;;6217996;23;20360;-80
2022/04/08 04:57:31;;;;;;;19.67;19.07;;;9.10;35.90;;;;;;6218421;23;20525;-80
2022/04/08 04:59:56;;;;;;;21.53;20.43;;;9.10;36.20;;;;;;6218315;23;20550;-80
2022/04/08 05:02:22;;;;;;;18.83;18.13;;;9.00;35.80;;;;;;6218464;23;20177;-80
2022/04/08 05:04:48;;;;;;;20.67;19.77;;;9.10;35.80;;;;;;6218141;23;20491;-80
2022/04/08 05:07:14;;;;;;;20.53;19.70;;;9.10;36.10;;;;;;6218336;23;20166;-80
2022/04/08 05:09:40;;;;;;;21.07;20.27;;;9.20;36.30;;;;;;6218490;23;20203;-80
2022/04/08 05:12:07;;;;;;;20.70;19.33;;;9.10;36.80;;;;;;6218053;23;20379;-80
2022/04/08 05:14:33;;;;;;;22.23;20.70;;;9.10;36.60;;;;;;6217706;23;20421;-80
2022/04/08 05:16:59;;;;;;;20.00;19.10;;;9.20;38.40;;;;;;6217841;23;20383;-80
2022/04/08 05:19:25;;;;;;;20.90;19.73;;;9.20;38.30;;;;;;6218336;23;20183;-81
2022/04/08 05:21:52;;;;;;;21.30;20.50;;;9.20;38.10;;;;;;6218018;23;20162;-81
2022/04/08 05:24:18;;;;;;;22.23;21.33;;;9.20;38.70;;;;;;6218174;23;20452;-82
2022/04/08 05:26:44;;;;;;;22.40;21.60;;;9.20;37.90;;;;;;6242749;23;20379;-81
2022/04/08 05:29:10;;;;;;;20.50;19.60;;;9.20;36.90;;;;;;6217686;23;20465;-81
2022/04/08 05:31:36;;;;;;;22.43;21.23;;;9.20;37.90;;;;;;6217499;23;20467;-81
2022/04/08 05:34:02;;;;;;;21.37;20.40;;;9.30;39.00;;;;;;6217933;23;20634;-81
2022/04/08 05:36:27;;;;;;;21.23;20.10;;;9.20;36.90;;;;;;6217799;23;20393;-81
2022/04/08 05:38:53;;;;;;;20.30;19.60;;;9.20;37.60;;;;;;6217791;23;20151;-81
2022/04/08 05:41:19;;;;;;;22.20;21.17;;;9.30;37.70;;;;;;6217828;23;20495;-81
2022/04/08 05:43:45;;;;;;;21.33;20.53;;;9.20;37.40;;;;;;6217705;23;20163;-81
2022/04/08 05:46:14;;;;;;;21.90;20.90;;;9.20;37.20;;;;;;6218813;23;20170;-77
2022/04/08 05:48:40;;;;;;;21.50;20.70;;;9.20;37.40;;;;;;6217485;23;20381;-77
2022/04/08 05:51:07;;;;;;;21.80;20.70;;;9.30;38.10;;;;;;6217665;23;20484;-77
2022/04/08 05:53:32;;;;;;;22.70;21.60;;;9.30;37.40;;;;;;6216823;23;20386;-76
2022/04/08 05:56:02;;;;;;;22.17;21.07;;;9.30;38.50;;;;;;6217335;23;20398;-75
2022/04/08 05:58:28;;;;;;;21.23;20.43;;;9.30;39.80;;;;;;6218150;23;20147;-76
2022/04/08 06:00:54;;;;;;;22.40;21.50;;;9.20;39.80;;;;;;6217808;23;20485;-77
2022/04/08 06:03:19;;;;;;;21.43;20.63;;;9.20;41.80;;;;;;6219505;23;20410;-77
2022/04/08 06:05:45;;;;;;;23.43;21.70;;;9.30;43.20;;;;;;6220414;23;20214;-77
2022/04/08 06:08:11;;;;;;;20.93;20.10;;;9.20;42.30;;;;;;6220629;23;20589;-77
2022/04/08 06:10:36;;;;;;;20.40;19.60;;;9.30;43.10;;;;;;6220932;23;20180;-77
2022/04/08 06:13:03;;;;;;;21.87;20.67;;;9.30;42.00;;;;;;6220469;23;20492;-77
2022/04/08 06:15:29;;;;;;;22.83;21.60;;;9.20;41.50;;;;;;6246863;23;20470;-77
2022/04/08 06:17:55;;;;;;;22.73;21.93;;;9.20;44.30;;;;;;6219751;23;20414;-77
2022/04/08 06:20:22;;;;;;;21.60;20.80;;;9.20;44.90;;;;;;6219163;23;20721;-76
2022/04/08 06:22:48;;;;;;;24.13;22.80;;;9.20;44.30;;;;;;6218280;23;20404;-74
2022/04/08 06:25:22;;;;;;;23.43;22.43;;;9.20;46.60;;;;;;6218996;23;20437;-75
2022/04/08 06:27:59;;;;;;;20.30;19.60;;;9.20;46.50;;;;;;6219241;23;20473;-75
2022/04/08 06:30:25;;;;;;;21.60;20.70;;;9.10;48.50;;;;;;6218429;23;20437;-76
2022/04/08 06:32:52;;;;;;;22.97;21.60;;;9.10;48.90;;;;;;6219571;23;20393;-74
2022/04/08 06:35:21;;;;;;;23.10;22.20;;;9.20;49.70;;;;;;6219025;23;20390;-77
2022/04/08 06:37:47;;;;;;;23.37;22.17;;;9.30;47.60;;;;;;6219158;23;20417;-76
2022/04/08 06:40:13;;;;;;;24.07;22.97;;;9.20;47.40;;;;;;6219429;23;20386;-77
2022/04/08 06:42:38;;;;;;;22.33;21.60;;;9.10;47.90;;;;;;6245903;23;20378;-77
2022/04/08 06:45:05;;;;;;;20.13;19.23;;;9.20;49.20;;;;;;6219032;23;20156;-75
2022/04/08 06:47:31;;;;;;;22.73;21.63;;;9.20;48.70;;;;;;6218734;23;20213;-76
2022/04/08 06:49:57;;;;;;;23.60;22.50;;;9.10;48.60;;;;;;6219078;23;20641;-76
2022/04/08 06:52:22;;;;;;;24.43;23.07;;;9.10;48.60;;;;;;6219120;23;20155;-76
2022/04/08 06:54:48;;;;;;;21.47;20.63;;;9.10;50.40;;;;;;6219101;23;20391;-77
2022/04/08 06:57:14;;;;;;;22.03;20.93;;;9.00;48.00;;;;;;6218914;23;20162;-76
2022/04/08 06:59:40;;;;;;;22.27;21.40;;;9.10;50.00;;;;;;6219560;23;20159;-76
2022/04/08 07:02:10;;;;;;;21.50;20.70;;;9.10;49.90;;;;;;6218838;23;20163;-78
2022/04/08 07:04:38;;;;;;;20.57;19.83;;;9.00;48.30;;;;;;6218865;23;20390;-78
2022/04/08 07:07:04;;;;;;;21.10;20.40;;;8.90;51.50;;;;;;6217518;23;20707;-78
2022/04/08 07:09:32;;;;;;;18.93;18.00;;;8.80;51.60;;;;;;6217697;23;20419;-78
2022/04/08 07:11:58;;;;;;;20.50;19.20;;;8.90;53.80;;;;;;6218712;23;20449;-77
2022/04/08 07:14:24;;;;;;;18.60;18.00;;;8.80;51.80;;;;;;6217954;23;20386;-77
2022/04/08 07:16:50;;;;;;;20.60;19.90;;;8.70;53.20;;;;;;6218865;23;20847;-77
2022/04/08 07:19:15;;;;;;;21.37;20.57;;;8.70;54.50;;;;;;6218278;23;20155;-77
2022/04/08 07:21:41;;;;;;;20.37;19.67;;;8.80;54.20;;;;;;6218678;23;20604;-77
2022/04/08 07:24:07;;;;;;;19.40;18.70;;;8.70;55.70;;;;;;6218765;23;20159;-78
2022/04/08 07:26:32;;;;;;;19.17;18.37;;;8.60;56.00;;;;;;6218645;23;20660;-77
2022/04/08 07:29:00;;;;;;;19.17;18.43;;;8.60;58.00;;;;;;6218523;23;20410;-77
2022/04/08 07:31:26;;;;;;;19.83;18.87;;;8.50;59.40;;;;;;6245125;23;20190;-77
2022/04/08 07:33:51;;;;;;;17.73;17.13;;;8.50;59.20;;;;;;6218375;23;20386;-76
2022/04/08 07:36:17;;;;;;;17.87;16.67;;;8.30;59.40;;;;;;6218538;23;20610;-76
2022/04/08 07:38:43;;;;;;;17.90;17.30;;;8.40;60.60;;;;;;6218727;23;20242;-76
2022/04/08 07:41:09;;;;;;;17.47;16.87;;;8.30;60.20;;;;;;6218499;23;20230;-77
2022/04/08 07:43:35;;;;;;;19.10;18.20;;;8.40;60.00;;;;;;6218438;23;20394;-76
2022/04/08 07:46:00;;;;;;;17.23;16.53;;;8.20;60.40;;;;;;6218231;23;20387;-76
2022/04/08 07:48:27;;;;;;;17.63;16.83;;;8.20;63.20;;;;;;6218435;23;20493;-78
2022/04/08 07:50:54;;;;;;;16.60;16.00;;;8.20;60.90;;;;;;6217963;23;20209;-77
2022/04/08 07:53:19;;;;;;;16.07;15.47;;;8.30;62.60;;;;;;6218126;23;20413;-78
2022/04/08 07:55:45;;;;;;;16.27;15.70;;;8.30;62.70;;;;;;6218240;23;20390;-78
2022/04/08 07:58:13;;;;;;;17.30;16.50;;;8.30;61.00;;;;;;6218453;23;20588;-76
2022/04/08 08:00:39;;;;;;;16.73;16.13;;;8.30;61.10;;;;;;6218185;23;20198;-76
2022/04/08 08:03:05;;;;;;;16.97;16.07;;;8.40;63.00;;;;;;6217927;23;20390;-76
2022/04/08 08:05:32;;;;;;;15.80;15.20;;;8.50;64.60;;;;;;6244777;23;20624;-76
2022/04/08 08:08:00;;;;;;;16.42;15.73;;;8.40;62.00;;;;;;6216868;23;20399;-77
2022/04/08 08:10:29;;;;;;;15.30;14.80;;;8.40;64.40;;;;;;6218104;23;20221;-76
2022/04/08 08:12:56;;;;;;;14.93;14.33;;;8.30;65.00;;;;;;6218048;23;20461;-76
2022/04/08 08:15:22;;;;;;;15.10;14.30;;;8.50;66.40;;;;;;6217945;23;20382;-76
2022/04/08 08:17:49;;;;;;;15.33;14.80;;;8.60;62.40;;;;;;6217956;23;20477;-77
2022/04/08 08:20:17;;;;;;;15.20;14.70;;;8.50;63.00;;;;;;6218008;23;20390;-77
2022/04/08 08:22:43;;;;;;;15.13;14.63;;;8.50;60.80;;;;;;6217964;23;20675;-77
2022/04/08 08:25:13;;;;;;;14.60;14.10;;;8.40;65.60;;;;;;6217263;23;20390;-77
2022/04/08 08:27:45;;;;;;;14.00;13.30;;;8.50;65.40;;;;;;6244871;23;20423;-77
2022/04/08 08:30:13;;;;;;;14.87;14.37;;;8.50;63.80;;;;;;6217458;23;20432;-76
2022/04/08 08:32:40;;;;;;;14.90;14.40;;;8.50;60.60;;;;;;6217849;23;20385;-77
2022/04/08 08:35:07;;;;;;;14.97;14.37;;;8.50;62.00;;;;;;6217677;23;20390;-75
2022/04/08 08:37:34;;;;;;;14.27;13.77;;;8.50;62.20;;;;;;6217955;23;20894;-76
2022/04/08 08:39:59;;;;;;;15.47;14.57;;;8.50;63.50;;;;;;6217778;23;20393;-76
2022/04/08 08:42:26;;;;;;;14.07;13.20;;;8.40;62.90;;;;;;6218143;23;20764;-76
2022/04/08 08:44:52;;;;;;;13.33;12.93;;;8.50;64.90;;;;;;6217923;23;20151;-76
2022/04/08 08:47:18;;;;;;;14.87;14.27;;;8.50;66.80;;;;;;6217716;23;20768;-76
2022/04/08 08:49:48;;;;;;;14.27;13.87;;;8.70;66.10;;;;;;6217757;23;20446;-77
2022/04/08 08:52:14;;;;;;;13.03;12.63;;;8.50;64.50;;;;;;6217542;23;20385;-79
2022/04/08 08:54:41;;;;;;;13.67;13.27;;;8.60;66.80;;;;;;6217726;23;20382;-78
2022/04/08 08:57:09;;;;;;;14.40;13.90;;;8.70;63.90;;;;;;6217750;23;20382;-76
2022/04/08 08:59:36;;;;;;;15.20;14.40;;;8.70;64.40;;;;;;6217754;23;20863;-77
2022/04/08 09:02:03;;;;;;;14.60;14.10;;;8.60;63.20;;;;;;6217633;23;20723;-76
2022/04/08 09:04:31;;;;;;;13.77;13.30;;;8.50;65.80;;;;;;6217410;23;20390;-77
2022/04/08 09:06:58;;;;;;;14.33;13.80;;;8.50;66.30;;;;;;6217200;23;20401;-77
2022/04/08 09:09:33;;;;;;;16.30;14.70;;;8.60;66.10;;;;;;6217402;23;20894;-78
2022/04/08 09:12:14;;;;;;;13.27;12.67;;;8.70;66.80;;;;;;6217918;23;20405;-77
2022/04/08 09:14:54;;;;;;;13.57;13.10;;;8.70;66.10;;;;;;6217482;23;20371;-77
2022/04/08 09:17:21;;;;;;;14.40;13.90;;;8.80;66.50;;;;;;6217842;23;20428;-77
2022/04/08 09:22:27;;;;;;;15.30;14.70;;;8.70;65.20;;;;;;6242585;22;20465;-81
2022/04/08 09:24:52;;;;;;;17.40;16.43;;;8.70;66.90;;;;;;6218595;23;20903;-82
2022/04/08 09:27:18;;;;;;;15.33;14.80;;;8.60;61.50;;;;;;6218811;23;20386;-82
2022/04/08 09:29:45;;;;;;;12.20;11.80;;;8.50;65.70;;;;;;6218294;23;20190;-82
2022/04/08 09:32:12;;;;;;;12.10;11.70;;;8.60;67.90;;;;;;6218486;23;20285;-82
2022/04/08 09:34:40;;;;;;;12.90;12.50;;;8.70;67.80;;;;;;6217722;23;20385;-82
2022/04/08 09:37:11;;;;;;;15.60;14.90;;;8.60;64.60;;;;;;6219372;23;20386;-81
2022/04/08 09:39:56;;;;;;;14.10;13.60;;;8.60;63.40;;;;;;6219910;23;20394;-80
2022/04/08 09:42:42;;;;;;;13.90;13.40;;;8.40;65.90;;;;;;6219735;23;20464;-81
2022/04/08 09:45:09;;;;;;;12.33;11.93;;;8.40;66.60;;;;;;6219769;23;20394;-81
2022/04/08 09:47:35;;;;;;;12.77;12.17;;;8.50;68.70;;;;;;6220009;23;20378;-82
2022/04/08 09:50:01;;;;;;;11.27;10.87;;;8.60;68.60;;;;;;6220037;23;20418;-83
2022/04/08 09:52:26;;;;;;;10.90;10.60;;;8.60;69.50;;;;;;6219544;23;20394;-83
2022/04/08 09:54:53;;;;;;;12.13;11.63;;;8.60;70.90;;;;;;6246618;23;20581;-82
2022/04/08 09:57:19;;;;;;;12.60;12.17;;;8.50;67.60;;;;;;6219600;23;20484;-81
2022/04/08 09:59:47;;;;;;;12.90;12.50;;;8.40;68.10;;;;;;6219874;23;20393;-81
2022/04/08 10:02:15;;;;;;;13.53;13.03;;;8.40;70.80;;;;;;6219716;23;20390;-82
2022/04/08 10:04:44;;;;;;;14.20;13.60;;;8.40;70.20;;;;;;6219245;23;20406;-81
2022/04/08 10:07:10;;;;;;;14.17;13.67;;;8.40;68.10;;;;;;6219781;23;20417;-81
2022/04/08 10:09:48;;;;;;;14.43;13.43;;;8.20;67.60;;;;;;6219015;23;20523;-81
2022/04/08 10:12:40;;;;;;;12.53;12.13;;;8.20;69.90;;;;;;6219675;23;20393;-81
2022/04/08 10:15:30;;;;;;;12.87;12.47;;;8.20;70.90;;;;;;6219252;23;20386;-81
2022/04/08 10:18:03;;;;;;;13.30;12.60;;;8.30;67.00;;;;;;6219671;23;20378;-81
2022/04/08 10:20:29;;;;;;;12.77;12.37;;;8.20;69.60;;;;;;6219036;23;20406;-81
2022/04/08 10:23:11;;;;;;;12.13;11.77;;;8.20;68.80;;;;;;6219670;23;20397;-81
2022/04/08 10:25:40;;;;;;;12.87;12.47;;;8.10;71.00;;;;;;6219198;23;20398;-81
2022/04/08 10:28:08;;;;;;;12.63;12.13;;;8.00;72.50;;;;;;6219574;23;20381;-82
2022/04/08 10:30:42;;;;;;;12.43;12.03;;;8.00;73.60;;;;;;6219169;23;20418;-81
2022/04/08 10:33:07;;;;;;;12.27;11.87;;;8.10;71.20;;;;;;6219422;23;20464;-81
2022/04/08 10:35:35;;;;;;;12.20;11.80;;;8.10;70.90;;;;;;6246445;23;20869;-81
2022/04/08 10:38:04;;;;;;;13.00;12.50;;;8.10;69.80;;;;;;6219679;23;20486;-81
2022/04/08 10:40:38;;;;;;;12.63;12.03;;;8.10;68.80;;;;;;6218973;23;20428;-81
2022/04/08 10:43:09;;;;;;;12.27;11.87;;;8.10;67.70;;;;;;6219434;23;20441;-81
2022/04/08 10:45:36;;;;;;;12.63;12.20;;;8.00;68.40;;;;;;6219119;23;20461;-81
2022/04/08 10:48:13;;;;;;;12.00;11.57;;;7.90;68.50;;;;;;6218859;23;20859;-82
2022/04/08 10:50:40;;;;;;;12.63;12.23;;;7.90;69.50;;;;;;6219304;23;20488;-82
2022/04/08 10:53:10;;;;;;;12.80;12.30;;;7.90;70.30;;;;;;6219578;23;20406;-82
2022/04/08 10:55:48;;;;;;;11.60;11.20;;;7.90;70.80;;;;;;6219237;23;20390;-81
2022/04/08 10:58:15;;;;;;;10.50;10.20;;;7.80;72.00;;;;;;6219693;23;20763;-82
2022/04/08 11:00:41;;;;;;;11.27;10.87;;;7.90;75.60;;;;;;6219253;23;20451;-82
2022/04/08 11:03:12;;;;;;;11.03;10.73;;;7.80;74.00;;;;;;6246174;23;20413;-82
2022/04/08 11:05:39;;;;;;;11.37;11.07;;;7.70;75.40;;;;;;6219047;23;20394;-81
2022/04/08 11:08:06;;;;;;;11.03;10.73;;;7.70;77.10;;;;;;6218709;23;20527;-82
2022/04/08 11:10:32;;;;;;;11.33;10.90;;;7.70;78.70;;;;;;6219167;23;20417;-82
2022/04/08 11:13:00;;;;;;;11.93;11.53;;;7.80;76.70;;;;;;6219179;23;20473;-82
2022/04/08 11:15:28;;;;;;;11.50;11.10;;;7.80;73.80;;;;;;6218713;23;20155;-82
2022/04/08 11:17:54;;;;;;;11.53;11.20;;;7.80;75.20;;;;;;6219189;23;20863;-82
2022/04/08 11:20:21;;;;;;;10.90;10.50;;;7.60;76.40;;;;;;6218842;23;20401;-81
2022/04/08 11:22:56;;;;;;;10.00;9.63;;;7.70;78.10;;;;;;6219075;23;20463;-82
2022/04/08 11:25:29;;;;;;;10.30;10.00;;;7.70;80.00;;;;;;6218927;23;20873;-83
2022/04/08 11:28:09;;;;;;;10.20;9.90;;;7.70;77.40;;;;;;6219169;23;20532;-83
2022/04/08 11:30:40;;;;;;;9.50;9.13;;;7.70;78.80;;;;;;6218707;23;20421;-83
2022/04/08 11:33:14;;;;;;;11.13;10.73;;;7.70;80.00;;;;;;6219033;23;20392;-83
2022/04/08 11:35:40;;;;;;;11.67;11.10;;;7.80;76.90;;;;;;6218725;23;20386;-83
2022/04/08 11:38:16;;;;;;;10.30;9.90;;;7.80;76.10;;;;;;6219006;23;20382;-83
2022/04/08 11:40:42;;;;;;;10.80;10.50;;;7.70;77.10;;;;;;6219023;23;20159;-83
2022/04/08 11:43:12;;;;;;;11.83;11.33;;;7.70;76.50;;;;;;6218967;23;20382;-82
2022/04/08 11:45:37;;;;;;;11.07;10.57;;;7.80;75.50;;;;;;6218715;23;20397;-82
2022/04/08 11:48:06;;;;;;;10.80;10.40;;;7.70;76.60;;;;;;6218755;23;20390;-83
2022/04/08 11:50:35;;;;;;;11.03;10.63;;;7.60;76.20;;;;;;6218722;23;20183;-84
2022/04/08 11:53:01;;;;;;;11.70;11.20;;;7.60;77.80;;;;;;6218707;23;20391;-83
2022/04/08 11:55:28;;;;;;;10.90;10.40;;;7.60;78.20;;;;;;6218806;23;20393;-83
2022/04/08 11:57:55;;;;;;;11.17;10.77;;;7.60;80.50;;;;;;6218741;23;20390;-82
2022/04/08 12:00:29;;;;;;;12.20;11.57;;;7.50;79.90;;;;;;6218208;23;20389;-83
2022/04/08 12:02:58;;;;;;;11.30;10.90;;;7.50;82.00;;;;;;6245533;23;20439;-83
2022/04/08 12:05:31;;;;;;;11.00;10.60;;;7.60;81.20;;;;;;6218607;23;20700;-82
2022/04/08 12:07:59;;;;;;;10.20;9.90;;;7.60;81.70;;;;;;6218597;23;20393;-83
2022/04/08 12:10:25;;;;;;;9.40;9.10;;;7.60;83.00;;;;;;6218598;23;20509;-84
2022/04/08 12:12:52;;;;;;;9.90;9.60;;;7.60;85.00;;;;;;6218243;23;20422;-84
2022/04/08 12:15:22;;;;;;;10.63;10.33;;;7.60;82.20;;;;;;6218714;23;20882;-83
2022/04/08 12:17:49;;;;;;;10.93;10.53;;;7.60;81.20;;;;;;6218582;23;20481;-84
2022/04/08 12:20:19;;;;;;;10.03;9.63;;;7.60;82.30;;;;;;6218616;23;20397;-83
2022/04/08 12:22:50;;;;;;;9.97;9.63;;;7.60;82.40;;;;;;6218595;23;20390;-83
2022/04/08 12:25:19;;;;;;;9.30;9.00;;;7.70;82.90;;;;;;6218989;23;20379;-83
2022/04/08 12:27:53;;;;;;;9.67;9.27;;;7.70;83.70;;;;;;6218563;23;20435;-79
2022/04/08 12:30:26;;;;;;;9.57;9.27;;;7.60;86.00;;;;;;6218026;23;20483;-80
2022/04/08 12:32:51;;;;;;;9.83;9.53;;;7.60;85.70;;;;;;6218305;23;20382;-81
2022/04/08 12:35:17;;;;;;;9.83;9.43;;;7.60;87.60;;;;;;6217921;23;20536;-80
2022/04/08 12:37:42;;;;;;;9.80;9.40;;;7.60;88.10;;;;;;6245203;23;20460;-81
2022/04/08 12:40:10;;;;;;;12.20;11.40;;;7.70;89.10;;;;;;6218144;23;20221;-81